createdAt,value
2022-10-07T00:00:45.333Z,82.59
2022-10-07T00:01:45.370Z,82.54
2022-10-07T00:02:45.358Z,82.45
2022-10-07T00:03:45.277Z,82.54
2022-10-07T00:04:45.293Z,82.59
2022-10-07T00:05:45.250Z,82.64
2022-10-07T00:06:45.269Z,82.83
2022-10-07T00:07:45.721Z,82.17
2022-10-07T00:08:45.254Z,82.49
2022-10-07T00:09:45.241Z,82.78
2022-10-07T00:10:45.231Z,82.45
2022-10-07T00:11:45.287Z,82.45
2022-10-07T00:12:45.242Z,82.54
2022-10-07T00:13:45.244Z,83.06
2022-10-07T00:14:45.221Z,83.12
2022-10-07T00:15:45.216Z,82.83
2022-10-07T00:16:45.346Z,82.64
2022-10-07T00:17:45.421Z,82.64
2022-10-07T00:18:45.195Z,83.12
2022-10-07T00:19:45.197Z,82.45
2022-10-07T00:20:45.191Z,82.54
2022-10-07T00:21:45.188Z,82.45
2022-10-07T00:22:45.184Z,82.83
2022-10-07T00:23:45.186Z,82.54
2022-10-07T00:24:45.167Z,82.73
2022-10-07T00:25:45.179Z,83.02
2022-10-07T00:26:45.166Z,82.92
2022-10-07T00:27:45.688Z,82.92
2022-10-07T00:28:45.178Z,82.73
2022-10-07T00:29:45.156Z,82.73
2022-10-07T00:30:45.183Z,83.31
2022-10-07T00:31:45.186Z,83.02
2022-10-07T00:32:45.144Z,82.92
2022-10-07T00:33:45.138Z,82.64
2022-10-07T00:34:45.129Z,83.02
2022-10-07T00:35:45.118Z,82.73
2022-10-07T00:36:45.127Z,82.64
2022-10-07T00:37:45.440Z,82.73
2022-10-07T00:38:45.107Z,82.64
2022-10-07T00:39:45.098Z,82.64
2022-10-07T00:40:45.104Z,82.73
2022-10-07T00:41:45.109Z,82.83
2022-10-07T00:42:45.088Z,82.83
2022-10-07T00:43:45.085Z,82.92
2022-10-07T00:44:45.076Z,82.64
2022-10-07T00:45:45.094Z,82.83
2022-10-07T00:46:45.067Z,82.54
2022-10-07T00:47:45.360Z,82.35
2022-10-07T00:48:45.090Z,82.73
2022-10-07T00:49:45.072Z,82.54
2022-10-07T00:50:45.063Z,82.73
2022-10-07T00:51:45.051Z,82.64
2022-10-07T00:52:45.043Z,82.45
2022-10-07T00:53:45.045Z,82.73
2022-10-07T00:54:45.057Z,82.83
2022-10-07T00:55:45.043Z,82.64
2022-10-07T00:56:45.034Z,82.73
2022-10-07T00:57:45.389Z,83.21
2022-10-07T00:58:45.026Z,83.21
2022-10-07T00:59:45.019Z,82.64
2022-10-07T01:00:45.005Z,82.64
2022-10-07T01:01:45.069Z,82.73
2022-10-07T01:02:45.082Z,82.41
2022-10-07T01:03:45.005Z,83.40
2022-10-07T01:04:44.986Z,83.69
2022-10-07T01:05:45.024Z,83.50
2022-10-07T01:06:44.989Z,83.50
2022-10-07T01:07:45.351Z,83.40
2022-10-07T01:08:45.030Z,83.40
2022-10-07T01:09:44.976Z,83.40
2022-10-07T01:10:44.967Z,83.40
2022-10-07T01:11:44.965Z,83.50
2022-10-07T01:12:44.962Z,83.59
2022-10-07T01:13:44.966Z,83.40
2022-10-07T01:14:44.952Z,83.50
2022-10-07T01:15:44.956Z,83.40
2022-10-07T01:16:44.987Z,83.31
2022-10-07T01:17:45.308Z,83.50
2022-10-07T01:18:44.929Z,83.69
2022-10-07T01:19:44.940Z,83.88
2022-10-07T01:20:44.932Z,83.78
2022-10-07T01:21:44.918Z,83.31
2022-10-07T01:22:44.929Z,83.21
2022-10-07T01:23:44.912Z,83.40
2022-10-07T01:24:44.908Z,83.59
2022-10-07T01:25:44.903Z,83.84
2022-10-07T01:26:44.897Z,83.55
2022-10-07T01:27:45.282Z,83.74
2022-10-07T01:28:44.957Z,83.88
2022-10-07T01:29:44.890Z,83.88
2022-10-07T01:30:44.906Z,83.88
2022-10-07T01:31:44.882Z,84.07
2022-10-07T01:32:44.872Z,83.84
2022-10-07T01:33:44.870Z,84.07
2022-10-07T01:34:44.867Z,83.84
2022-10-07T01:35:44.867Z,84.03
2022-10-07T01:36:44.868Z,83.93
2022-10-07T01:37:45.136Z,84.03
2022-10-07T01:38:44.847Z,83.84
2022-10-07T01:39:44.854Z,83.69
2022-10-07T01:40:44.844Z,84.03
2022-10-07T01:41:44.842Z,83.65
2022-10-07T01:42:44.832Z,83.93
2022-10-07T01:43:44.841Z,83.74
2022-10-07T01:44:44.825Z,83.74
2022-10-07T01:45:44.889Z,83.74
2022-10-07T01:46:44.819Z,83.65
2022-10-07T01:47:45.165Z,84.03
2022-10-07T01:48:44.801Z,83.74
2022-10-07T01:49:44.797Z,83.93
2022-10-07T01:50:44.791Z,84.41
2022-10-07T01:51:44.797Z,84.50
2022-10-07T01:52:44.787Z,84.22
2022-10-07T01:53:44.789Z,84.50
2022-10-07T01:54:44.781Z,84.41
2022-10-07T01:55:44.778Z,84.31
2022-10-07T01:56:44.822Z,84.31
2022-10-07T01:57:45.114Z,84.41
2022-10-07T01:58:44.778Z,84.41
2022-10-07T01:59:44.775Z,84.41
2022-10-07T02:00:44.769Z,84.41
2022-10-07T02:01:44.781Z,84.41
2022-10-07T02:02:44.793Z,84.31
2022-10-07T02:03:44.808Z,84.12
2022-10-07T02:04:44.741Z,84.69
2022-10-07T02:05:44.724Z,84.69
2022-10-07T02:06:44.729Z,84.79
2022-10-07T02:07:45.141Z,84.60
2022-10-07T02:08:44.722Z,84.79
2022-10-07T02:09:44.726Z,84.69
2022-10-07T02:10:44.720Z,84.50
2022-10-07T02:11:44.708Z,84.98
2022-10-07T02:12:44.741Z,85.17
2022-10-07T02:13:44.700Z,85.08
2022-10-07T02:14:44.687Z,84.50
2022-10-07T02:15:44.740Z,84.60
2022-10-07T02:16:44.676Z,84.98
2022-10-07T02:17:45.001Z,84.79
2022-10-07T02:18:44.669Z,84.98
2022-10-07T02:19:44.664Z,85.17
2022-10-07T02:20:44.666Z,84.98
2022-10-07T02:21:44.655Z,84.60
2022-10-07T02:22:44.645Z,84.60
2022-10-07T02:23:44.647Z,84.50
2022-10-07T02:24:44.642Z,84.50
2022-10-07T02:25:44.637Z,84.98
2022-10-07T02:26:44.648Z,84.79
2022-10-07T02:27:44.886Z,85.08
2022-10-07T02:28:44.635Z,84.79
2022-10-07T02:29:44.633Z,84.98
2022-10-07T02:30:44.640Z,85.17
2022-10-07T02:31:44.645Z,85.08
2022-10-07T02:32:44.611Z,84.88
2022-10-07T02:33:44.611Z,85.17
2022-10-07T02:34:44.602Z,84.88
2022-10-07T02:35:44.597Z,84.98
2022-10-07T02:36:44.583Z,85.27
2022-10-07T02:37:44.875Z,84.98
2022-10-07T02:38:44.581Z,84.69
2022-10-07T02:39:44.575Z,84.88
2022-10-07T02:40:44.575Z,85.08
2022-10-07T02:41:44.585Z,84.88
2022-10-07T02:42:44.563Z,84.98
2022-10-07T02:43:44.560Z,84.79
2022-10-07T02:44:44.559Z,84.98
2022-10-07T02:45:44.547Z,85.17
2022-10-07T02:46:44.614Z,85.27
2022-10-07T02:47:44.807Z,85.17
2022-10-07T02:48:44.539Z,84.98
2022-10-07T02:49:44.535Z,84.88
2022-10-07T02:50:44.516Z,85.08
2022-10-07T02:51:44.544Z,84.88
2022-10-07T02:52:44.522Z,85.17
2022-10-07T02:53:44.508Z,85.17
2022-10-07T02:54:44.510Z,84.98
2022-10-07T02:55:44.499Z,84.98
2022-10-07T02:56:44.494Z,84.98
2022-10-07T02:57:44.821Z,84.98
2022-10-07T02:58:44.485Z,84.98
2022-10-07T02:59:44.482Z,85.36
2022-10-07T03:00:44.482Z,85.08
2022-10-07T03:01:44.504Z,85.27
2022-10-07T03:02:44.463Z,85.64
2022-10-07T03:03:44.495Z,85.74
2022-10-07T03:04:44.461Z,85.74
2022-10-07T03:05:44.451Z,85.64
2022-10-07T03:06:44.455Z,85.55
2022-10-07T03:07:44.745Z,85.64
2022-10-07T03:08:44.458Z,85.17
2022-10-07T03:09:44.438Z,85.17
2022-10-07T03:10:44.441Z,85.17
2022-10-07T03:11:44.427Z,85.27
2022-10-07T03:12:44.419Z,85.08
2022-10-07T03:13:44.414Z,85.08
2022-10-07T03:14:44.405Z,85.41
2022-10-07T03:15:44.450Z,85.41
2022-10-07T03:16:44.511Z,85.32
2022-10-07T03:17:44.610Z,85.51
2022-10-07T03:18:44.395Z,85.55
2022-10-07T03:19:44.385Z,85.32
2022-10-07T03:20:44.385Z,85.70
2022-10-07T03:21:44.387Z,85.70
2022-10-07T03:22:44.374Z,85.51
2022-10-07T03:23:44.368Z,85.51
2022-10-07T03:24:44.363Z,85.32
2022-10-07T03:25:44.360Z,86.18
2022-10-07T03:26:44.355Z,85.89
2022-10-07T03:27:44.571Z,86.08
2022-10-07T03:28:44.426Z,86.27
2022-10-07T03:29:44.347Z,85.89
2022-10-07T03:30:44.357Z,85.99
2022-10-07T03:31:44.338Z,85.80
2022-10-07T03:32:44.350Z,85.99
2022-10-07T03:33:44.347Z,85.99
2022-10-07T03:34:44.327Z,85.99
2022-10-07T03:35:44.326Z,86.18
2022-10-07T03:36:44.314Z,86.36
2022-10-07T03:37:44.551Z,86.18
2022-10-07T03:38:44.299Z,85.51
2022-10-07T03:39:44.302Z,85.60
2022-10-07T03:40:44.310Z,85.51
2022-10-07T03:41:44.284Z,85.32
2022-10-07T03:42:44.281Z,85.13
2022-10-07T03:43:44.276Z,85.22
2022-10-07T03:44:44.280Z,85.70
2022-10-07T03:45:44.283Z,85.41
2022-10-07T03:46:44.338Z,85.51
2022-10-07T03:47:44.516Z,85.60
2022-10-07T03:48:44.255Z,85.70
2022-10-07T03:49:44.247Z,85.32
2022-10-07T03:50:44.242Z,85.32
2022-10-07T03:51:44.243Z,86.18
2022-10-07T03:52:44.253Z,86.08
2022-10-07T03:53:44.242Z,85.99
2022-10-07T03:54:44.224Z,86.08
2022-10-07T03:55:44.215Z,85.99
2022-10-07T03:56:44.213Z,86.18
2022-10-07T03:57:44.420Z,86.36
2022-10-07T03:58:44.206Z,85.60
2022-10-07T03:59:44.194Z,85.32
2022-10-07T04:00:44.193Z,85.32
2022-10-07T04:01:44.263Z,86.08
2022-10-07T04:02:44.258Z,86.08
2022-10-07T04:03:44.191Z,85.89
2022-10-07T04:04:44.187Z,85.89
2022-10-07T04:05:44.170Z,86.08
2022-10-07T04:06:44.172Z,85.80
2022-10-07T04:07:44.390Z,85.80
2022-10-07T04:08:44.153Z,86.36
2022-10-07T04:09:44.154Z,85.89
2022-10-07T04:10:44.149Z,86.08
2022-10-07T04:11:44.151Z,86.27
2022-10-07T04:12:44.142Z,86.27
2022-10-07T04:13:44.131Z,86.65
2022-10-07T04:14:44.134Z,86.46
2022-10-07T04:15:44.127Z,86.65
2022-10-07T04:16:44.194Z,86.55
2022-10-07T04:17:44.418Z,86.18
2022-10-07T04:18:44.115Z,86.18
2022-10-07T04:19:44.102Z,86.65
2022-10-07T04:20:44.125Z,86.55
2022-10-07T04:21:44.094Z,86.42
2022-10-07T04:22:44.088Z,86.46
2022-10-07T04:23:44.083Z,86.36
2022-10-07T04:24:44.075Z,86.55
2022-10-07T04:25:44.070Z,86.32
2022-10-07T04:26:44.063Z,86.36
2022-10-07T04:27:51.967Z,86.61
2022-10-07T04:28:44.104Z,86.51
2022-10-07T04:29:44.057Z,86.51
2022-10-07T04:30:44.057Z,86.51
2022-10-07T04:31:44.082Z,86.13
2022-10-07T04:32:44.032Z,86.22
2022-10-07T04:33:44.026Z,86.32
2022-10-07T04:34:44.028Z,86.04
2022-10-07T04:35:44.025Z,85.94
2022-10-07T04:36:44.047Z,86.13
2022-10-07T04:37:44.313Z,86.32
2022-10-07T04:38:44.018Z,86.61
2022-10-07T04:40:00.380Z,86.61
2022-10-07T04:40:44.004Z,86.42
2022-10-07T04:41:43.990Z,86.61
2022-10-07T04:42:43.978Z,86.51
2022-10-07T04:43:43.981Z,86.80
2022-10-07T04:44:43.977Z,86.32
2022-10-07T04:45:43.968Z,86.61
2022-10-07T04:46:44.027Z,86.13
2022-10-07T04:47:44.254Z,86.04
2022-10-07T04:48:43.953Z,86.22
2022-10-07T04:49:43.958Z,86.22
2022-10-07T04:50:43.943Z,86.42
2022-10-07T04:51:43.949Z,86.51
2022-10-07T04:52:43.940Z,86.51
2022-10-07T04:53:43.933Z,86.80
2022-10-07T04:54:43.926Z,86.61
2022-10-07T04:55:43.931Z,86.61
2022-10-07T04:56:43.926Z,86.32
2022-10-07T04:57:44.183Z,87.08
2022-10-07T04:58:43.902Z,86.90
2022-10-07T04:59:43.901Z,86.90
2022-10-07T05:00:43.953Z,87.08
2022-10-07T05:01:43.933Z,86.70
2022-10-07T05:02:43.890Z,86.80
2022-10-07T05:03:43.885Z,86.80
2022-10-07T05:04:43.871Z,86.70
2022-10-07T05:05:43.879Z,86.80
2022-10-07T05:06:43.876Z,86.70
2022-10-07T05:07:44.165Z,86.04
2022-10-07T05:08:43.855Z,87.08
2022-10-07T05:09:43.843Z,86.70
2022-10-07T05:10:43.840Z,86.42
2022-10-07T05:11:43.839Z,86.42
2022-10-07T05:12:43.848Z,87.08
2022-10-07T05:13:43.826Z,86.32
2022-10-07T05:14:43.859Z,86.70
2022-10-07T05:15:43.811Z,86.22
2022-10-07T05:16:43.837Z,86.42
2022-10-07T05:17:44.147Z,86.42
2022-10-07T05:18:43.805Z,87.23
2022-10-07T05:19:43.826Z,86.61
2022-10-07T05:20:43.807Z,86.04
2022-10-07T05:21:43.783Z,86.32
2022-10-07T05:22:43.809Z,86.80
2022-10-07T05:23:43.775Z,86.51
2022-10-07T05:24:43.767Z,85.94
2022-10-07T05:25:43.763Z,86.32
2022-10-07T05:26:43.770Z,86.32
2022-10-07T05:27:44.096Z,86.70
2022-10-07T05:28:43.836Z,86.51
2022-10-07T05:29:43.756Z,86.61
2022-10-07T05:30:43.757Z,86.22
2022-10-07T05:31:43.816Z,87.08
2022-10-07T05:32:43.725Z,86.80
2022-10-07T05:33:43.733Z,86.80
2022-10-07T05:34:43.723Z,87.18
2022-10-07T05:35:43.723Z,86.61
2022-10-07T05:36:43.714Z,86.80
2022-10-07T05:37:47.541Z,86.80
2022-10-07T05:38:43.705Z,87.46
2022-10-07T05:39:43.687Z,87.27
2022-10-07T05:40:43.701Z,87.08
2022-10-07T05:41:45.873Z,87.08
2022-10-07T05:42:43.691Z,87.18
2022-10-07T05:43:43.687Z,86.90
2022-10-07T05:44:43.680Z,86.90
2022-10-07T05:45:43.746Z,87.37
2022-10-07T05:46:43.674Z,86.80
2022-10-07T05:47:44.010Z,87.56
2022-10-07T05:48:43.640Z,86.90
2022-10-07T05:49:43.642Z,86.90
2022-10-07T05:50:43.646Z,87.18
2022-10-07T05:51:43.625Z,87.18
2022-10-07T05:52:43.626Z,86.90
2022-10-07T05:53:43.622Z,86.90
2022-10-07T05:54:43.642Z,87.27
2022-10-07T05:55:43.608Z,86.80
2022-10-07T05:56:43.616Z,86.70
2022-10-07T05:57:43.866Z,86.90
2022-10-07T05:58:43.594Z,86.90
2022-10-07T05:59:43.588Z,86.99
2022-10-07T06:00:43.598Z,86.99
2022-10-07T06:01:43.614Z,86.42
2022-10-07T06:02:43.684Z,86.22
2022-10-07T06:03:43.569Z,86.42
2022-10-07T06:04:43.567Z,86.80
2022-10-07T06:05:43.614Z,87.08
2022-10-07T06:06:43.568Z,86.90
2022-10-07T06:07:43.775Z,87.08
2022-10-07T06:08:43.551Z,86.22
2022-10-07T06:09:43.544Z,86.99
2022-10-07T06:10:43.550Z,87.37
2022-10-07T06:11:43.535Z,87.27
2022-10-07T06:12:43.550Z,87.08
2022-10-07T06:13:43.532Z,87.18
2022-10-07T06:14:43.564Z,87.08
2022-10-07T06:15:43.522Z,87.08
2022-10-07T06:16:43.594Z,87.08
2022-10-07T06:17:43.769Z,87.27
2022-10-07T06:18:43.506Z,87.18
2022-10-07T06:19:43.507Z,87.27
2022-10-07T06:20:43.499Z,87.27
2022-10-07T06:21:43.496Z,87.27
2022-10-07T06:22:43.484Z,86.99
2022-10-07T06:23:43.579Z,86.80
2022-10-07T06:24:43.494Z,87.08
2022-10-07T06:25:43.475Z,87.18
2022-10-07T06:26:43.476Z,89.61
2022-10-07T06:27:43.953Z,90.84
2022-10-07T06:28:43.582Z,90.36
2022-10-07T06:29:43.437Z,89.51
2022-10-07T06:30:43.505Z,88.08
2022-10-07T06:31:43.430Z,88.37
2022-10-07T06:32:43.511Z,87.98
2022-10-07T06:33:43.427Z,87.60
2022-10-07T06:34:43.410Z,87.51
2022-10-07T06:35:43.415Z,87.51
2022-10-07T06:36:43.413Z,87.51
2022-10-07T06:37:43.740Z,87.41
2022-10-07T06:38:43.401Z,87.51
2022-10-07T06:39:43.443Z,87.60
2022-10-07T06:40:43.417Z,87.51
2022-10-07T06:41:43.468Z,86.75
2022-10-07T06:42:43.465Z,87.13
2022-10-07T06:43:43.374Z,87.13
2022-10-07T06:44:43.375Z,87.13
2022-10-07T06:45:43.471Z,86.75
2022-10-07T06:46:43.366Z,86.84
2022-10-07T06:47:43.770Z,86.84
2022-10-07T06:48:43.355Z,86.94
2022-10-07T06:49:43.363Z,87.23
2022-10-07T06:50:43.336Z,86.84
2022-10-07T06:51:43.366Z,87.03
2022-10-07T06:52:43.683Z,87.13
2022-10-07T06:53:43.373Z,87.13
2022-10-07T06:54:43.322Z,87.13
2022-10-07T06:55:43.313Z,86.98
2022-10-07T06:56:43.350Z,87.36
2022-10-07T06:57:56.058Z,87.46
2022-10-07T06:58:43.303Z,87.27
2022-10-07T06:59:43.305Z,87.36
2022-10-07T07:00:43.316Z,87.07
2022-10-07T07:01:43.320Z,86.51
2022-10-07T07:02:43.364Z,86.98
2022-10-07T07:03:43.298Z,86.79
2022-10-07T07:04:43.305Z,86.98
2022-10-07T07:05:45.794Z,86.98
2022-10-07T07:06:43.259Z,86.60
2022-10-07T07:07:43.538Z,86.69
2022-10-07T07:08:43.283Z,86.69
2022-10-07T07:09:43.257Z,86.60
2022-10-07T07:10:43.251Z,86.51
2022-10-07T07:11:43.237Z,86.60
2022-10-07T07:12:43.732Z,86.51
2022-10-07T07:13:45.356Z,86.22
2022-10-07T07:14:43.234Z,86.03
2022-10-07T07:15:43.224Z,86.03
2022-10-07T07:16:43.305Z,86.03
2022-10-07T07:17:43.605Z,86.12
2022-10-07T07:18:43.206Z,85.55
2022-10-07T07:19:43.212Z,85.69
2022-10-07T07:20:43.210Z,86.26
2022-10-07T07:21:44.024Z,85.41
2022-10-07T07:22:43.203Z,85.02
2022-10-07T07:23:43.196Z,84.97
2022-10-07T07:24:43.190Z,84.40
2022-10-07T07:25:43.201Z,83.11
2022-10-07T07:26:43.178Z,82.43
2022-10-07T07:27:43.607Z,82.48
2022-10-07T07:28:43.271Z,80.80
2022-10-07T07:29:43.183Z,79.56
2022-10-07T07:30:43.256Z,77.01
2022-10-07T07:31:43.189Z,75.30
2022-10-07T07:32:43.211Z,74.38
2022-10-07T07:33:43.201Z,73.90
2022-10-07T07:34:43.305Z,72.79
2022-10-07T07:35:43.224Z,71.64
2022-10-07T07:36:43.220Z,70.24
2022-10-07T07:37:43.623Z,69.89
2022-10-07T07:38:43.208Z,68.30
2022-10-07T07:39:43.210Z,67.05
2022-10-07T07:40:43.228Z,66.80
2022-10-07T07:41:43.227Z,66.32
2022-10-07T07:42:43.242Z,64.82
2022-10-07T07:43:43.258Z,64.43
2022-10-07T07:44:43.256Z,63.32
2022-10-07T07:45:43.317Z,63.12
2022-10-07T07:46:43.287Z,62.16
2022-10-07T07:47:43.664Z,61.33
2022-10-07T07:48:43.304Z,61.33
2022-10-07T07:49:43.299Z,59.92
2022-10-07T07:50:43.320Z,58.87
2022-10-07T07:51:43.343Z,58.70
2022-10-07T07:52:43.357Z,58.22
2022-10-07T07:53:43.357Z,58.13
2022-10-07T07:54:43.374Z,57.84
2022-10-07T07:55:43.374Z,57.20
2022-10-07T07:56:43.392Z,57.10
2022-10-07T07:57:43.696Z,57.10
2022-10-07T07:58:43.413Z,56.71
2022-10-07T07:59:43.419Z,56.62
2022-10-07T08:00:43.427Z,56.07
2022-10-07T08:01:43.442Z,55.30
2022-10-07T08:02:43.511Z,55.49
2022-10-07T08:03:43.504Z,54.56
2022-10-07T08:04:43.471Z,54.65
2022-10-07T08:05:43.480Z,53.98
2022-10-07T08:06:43.488Z,53.78
2022-10-07T08:07:43.892Z,53.59
2022-10-07T08:08:43.551Z,53.31
2022-10-07T08:09:43.531Z,53.43
2022-10-07T08:10:43.915Z,53.33
2022-10-07T08:11:43.565Z,52.47
2022-10-07T08:12:43.584Z,52.66
2022-10-07T08:13:43.587Z,52.37
2022-10-07T08:14:43.598Z,52.18
2022-10-07T08:15:43.707Z,51.79
2022-10-07T08:16:43.614Z,51.60
2022-10-07T08:17:44.007Z,52.37
2022-10-07T08:18:43.661Z,51.50
2022-10-07T08:19:43.668Z,52.25
2022-10-07T08:20:43.676Z,52.34
2022-10-07T08:21:43.681Z,52.73
2022-10-07T08:22:43.700Z,52.83
2022-10-07T08:23:43.715Z,53.19
2022-10-07T08:24:44.393Z,53.09
2022-10-07T08:25:43.771Z,53.74
2022-10-07T08:26:43.760Z,53.92
2022-10-07T08:27:44.179Z,54.50
2022-10-07T08:28:43.810Z,55.15
2022-10-07T08:29:43.813Z,55.44
2022-10-07T08:30:43.825Z,56.30
2022-10-07T08:31:43.816Z,56.56
2022-10-07T08:32:43.846Z,57.04
2022-10-07T08:33:43.870Z,56.27
2022-10-07T08:34:43.867Z,57.33
2022-10-07T08:35:43.884Z,57.33
2022-10-07T08:36:43.900Z,57.21
2022-10-07T08:37:44.212Z,57.88
2022-10-07T08:38:50.477Z,58.36
2022-10-07T08:39:43.919Z,58.36
2022-10-07T08:40:43.936Z,59.12
2022-10-07T08:41:43.947Z,59.22
2022-10-07T08:42:44.003Z,59.32
2022-10-07T08:43:43.970Z,59.80
2022-10-07T08:44:43.976Z,60.66
2022-10-07T08:45:43.980Z,60.28
2022-10-07T08:46:43.979Z,60.57
2022-10-07T08:47:44.416Z,60.57
2022-10-07T08:48:43.998Z,60.85
2022-10-07T08:49:44.059Z,61.24
2022-10-07T08:50:44.031Z,61.33
2022-10-07T08:51:44.019Z,61.81
2022-10-07T08:52:44.044Z,61.49
2022-10-07T08:53:44.039Z,61.02
2022-10-07T08:54:44.047Z,61.21
2022-10-07T08:55:44.072Z,61.78
2022-10-07T08:56:44.050Z,62.26
2022-10-07T08:57:44.314Z,62.45
2022-10-07T08:58:44.056Z,62.65
2022-10-07T08:59:44.104Z,62.93
2022-10-07T09:00:44.065Z,62.26
2022-10-07T09:01:44.100Z,62.65
2022-10-07T09:02:44.110Z,62.65
2022-10-07T09:03:44.089Z,62.90
2022-10-07T09:04:44.117Z,62.71
2022-10-07T09:05:44.075Z,63.09
2022-10-07T09:06:44.074Z,62.81
2022-10-07T09:07:44.360Z,62.81
2022-10-07T09:08:44.106Z,63.00
2022-10-07T09:09:44.130Z,63.29
2022-10-07T09:10:44.097Z,63.96
2022-10-07T09:11:44.118Z,63.64
2022-10-07T09:12:44.116Z,64.22
2022-10-07T09:13:44.101Z,64.22
2022-10-07T09:14:44.102Z,64.31
2022-10-07T09:15:44.225Z,64.40
2022-10-07T09:16:44.120Z,64.31
2022-10-07T09:17:44.111Z,64.59
2022-10-07T09:18:44.103Z,64.31
2022-10-07T09:19:44.118Z,64.98
2022-10-07T09:20:44.109Z,65.08
2022-10-07T09:21:44.157Z,65.46
2022-10-07T09:22:44.128Z,65.65
2022-10-07T09:23:44.113Z,66.13
2022-10-07T09:25:44.105Z,66.03
2022-10-07T09:26:44.107Z,65.84
2022-10-07T09:27:44.476Z,66.03
2022-10-07T09:28:44.206Z,66.42
2022-10-07T09:29:44.116Z,66.42
2022-10-07T09:30:44.211Z,66.03
2022-10-07T09:31:44.113Z,66.55
2022-10-07T09:32:44.124Z,66.71
2022-10-07T09:33:44.119Z,66.74
2022-10-07T09:34:44.119Z,66.64
2022-10-07T09:35:44.123Z,66.55
2022-10-07T09:36:44.109Z,66.06
2022-10-07T09:37:44.427Z,64.92
2022-10-07T09:38:44.125Z,64.98
2022-10-07T09:39:44.116Z,65.68
2022-10-07T09:40:44.110Z,65.59
2022-10-07T09:41:44.123Z,65.68
2022-10-07T09:42:44.117Z,65.97
2022-10-07T09:43:44.107Z,66.16
2022-10-07T09:44:44.122Z,65.59
2022-10-07T09:45:45.009Z,65.11
2022-10-07T09:46:44.250Z,64.43
2022-10-07T09:47:44.490Z,64.92
2022-10-07T09:48:44.129Z,66.06
2022-10-07T09:49:44.128Z,66.55
2022-10-07T09:50:44.133Z,66.35
2022-10-07T09:51:44.123Z,66.83
2022-10-07T09:52:44.121Z,66.83
2022-10-07T09:53:44.180Z,66.29
2022-10-07T09:54:44.128Z,66.19
2022-10-07T09:55:44.138Z,65.52
2022-10-07T09:56:44.197Z,65.43
2022-10-07T09:57:44.457Z,64.76
2022-10-07T09:58:44.126Z,64.37
2022-10-07T09:59:44.114Z,63.79
2022-10-07T10:00:44.125Z,63.42
2022-10-07T10:01:44.152Z,62.52
2022-10-07T10:02:44.239Z,62.33
2022-10-07T10:03:44.190Z,62.42
2022-10-07T10:04:44.117Z,62.04
2022-10-07T10:05:44.139Z,62.62
2022-10-07T10:06:44.151Z,62.42
2022-10-07T10:07:44.353Z,62.42
2022-10-07T10:08:44.132Z,62.62
2022-10-07T10:09:44.119Z,62.52
2022-10-07T10:10:44.133Z,63.38
2022-10-07T10:11:44.123Z,64.34
2022-10-07T10:12:44.516Z,64.82
2022-10-07T10:13:44.130Z,64.25
2022-10-07T10:14:44.144Z,63.48
2022-10-07T10:15:44.145Z,63.86
2022-10-07T10:16:44.120Z,63.29
2022-10-07T10:17:44.123Z,63.38
2022-10-07T10:18:44.126Z,63.26
2022-10-07T10:19:44.111Z,63.06
2022-10-07T10:20:44.115Z,62.68
2022-10-07T10:21:44.130Z,63.45
2022-10-07T10:22:44.502Z,63.45
2022-10-07T10:23:44.118Z,63.16
2022-10-07T10:24:44.116Z,63.45
2022-10-07T10:25:44.212Z,63.73
2022-10-07T10:26:44.228Z,64.31
2022-10-07T10:27:44.127Z,64.50
2022-10-07T10:28:44.207Z,64.02
2022-10-07T10:29:44.180Z,64.22
2022-10-07T10:30:44.116Z,64.40
2022-10-07T10:31:44.146Z,64.40
2022-10-07T10:32:44.498Z,64.12
2022-10-07T10:33:44.121Z,64.12
2022-10-07T10:34:44.111Z,64.18
2022-10-07T10:35:44.105Z,63.99
2022-10-07T10:36:44.121Z,64.47
2022-10-07T10:37:44.124Z,64.66
2022-10-07T10:38:44.103Z,64.69
2022-10-07T10:39:44.111Z,64.66
2022-10-07T10:40:44.106Z,64.89
2022-10-07T10:41:44.106Z,64.95
2022-10-07T10:42:44.399Z,64.76
2022-10-07T10:43:44.105Z,64.79
2022-10-07T10:44:44.154Z,64.37
2022-10-07T10:45:44.116Z,64.50
2022-10-07T10:46:47.328Z,64.56
2022-10-07T10:47:44.117Z,64.76
2022-10-07T10:48:44.151Z,64.47
2022-10-07T10:49:44.135Z,64.28
2022-10-07T10:50:44.106Z,64.47
2022-10-07T10:51:44.099Z,64.22
2022-10-07T10:52:44.305Z,64.40
2022-10-07T10:53:44.104Z,64.47
2022-10-07T10:54:44.150Z,64.37
2022-10-07T10:55:44.102Z,64.37
2022-10-07T10:56:44.098Z,64.79
2022-10-07T10:57:44.120Z,64.66
2022-10-07T10:58:44.106Z,64.85
2022-10-07T10:59:44.119Z,64.95
2022-10-07T11:00:44.118Z,64.31
2022-10-07T11:01:44.180Z,64.69
2022-10-07T11:02:44.582Z,64.28
2022-10-07T11:03:44.102Z,63.99
2022-10-07T11:04:44.166Z,63.99
2022-10-07T11:05:44.098Z,63.99
2022-10-07T11:06:44.098Z,64.37
2022-10-07T11:07:44.099Z,64.28
2022-10-07T11:08:44.149Z,63.99
2022-10-07T11:09:44.114Z,64.02
2022-10-07T11:10:44.100Z,63.83
2022-10-07T11:11:44.108Z,63.64
2022-10-07T11:12:44.464Z,63.26
2022-10-07T11:13:44.163Z,62.84
2022-10-07T11:14:44.112Z,63.54
2022-10-07T11:15:44.318Z,62.49
2022-10-07T11:16:44.108Z,62.30
2022-10-07T11:17:44.104Z,62.10
2022-10-07T11:18:44.092Z,62.39
2022-10-07T11:19:44.092Z,62.10
2022-10-07T11:20:44.983Z,62.10
2022-10-07T11:21:44.101Z,61.82
2022-10-07T11:22:44.441Z,62.10
2022-10-07T11:23:44.094Z,62.68
2022-10-07T11:24:44.114Z,62.30
2022-10-07T11:25:44.096Z,62.49
2022-10-07T11:26:44.091Z,62.30
2022-10-07T11:27:44.092Z,62.30
2022-10-07T11:28:44.140Z,61.91
2022-10-07T11:29:44.144Z,61.82
2022-10-07T11:30:44.135Z,62.01
2022-10-07T11:31:44.198Z,62.39
2022-10-07T11:32:44.460Z,61.91
2022-10-07T11:33:44.084Z,62.39
2022-10-07T11:34:44.089Z,61.91
2022-10-07T11:35:44.092Z,61.24
2022-10-07T11:36:44.080Z,60.86
2022-10-07T11:37:44.081Z,60.57
2022-10-07T11:38:44.097Z,60.67
2022-10-07T11:39:44.097Z,60.76
2022-10-07T11:40:44.091Z,61.24
2022-10-07T11:41:44.087Z,61.05
2022-10-07T11:42:44.350Z,61.15
2022-10-07T11:43:44.110Z,61.34
2022-10-07T11:44:44.076Z,60.76
2022-10-07T11:45:44.101Z,60.67
2022-10-07T11:46:44.149Z,60.38
2022-10-07T11:47:44.079Z,59.80
2022-10-07T11:48:44.085Z,59.42
2022-10-07T11:49:44.081Z,60.38
2022-10-07T11:50:44.092Z,60.19
2022-10-07T11:51:44.087Z,60.67
2022-10-07T11:52:44.316Z,60.76
2022-10-07T11:53:44.086Z,61.05
2022-10-07T11:54:44.110Z,60.57
2022-10-07T11:55:44.084Z,59.71
2022-10-07T11:56:44.097Z,59.42
2022-10-07T11:57:44.082Z,59.52
2022-10-07T11:58:44.080Z,59.90
2022-10-07T11:59:44.093Z,59.71
2022-10-07T12:00:44.119Z,59.71
2022-10-07T12:01:44.202Z,59.42
2022-10-07T12:02:44.440Z,58.56
2022-10-07T12:03:44.069Z,58.17
2022-10-07T12:04:44.166Z,58.46
2022-10-07T12:05:44.069Z,58.46
2022-10-07T12:06:44.080Z,58.17
2022-10-07T12:07:44.093Z,58.08
2022-10-07T12:08:44.075Z,57.79
2022-10-07T12:09:44.081Z,58.37
2022-10-07T12:10:44.083Z,58.37
2022-10-07T12:11:44.082Z,58.46
2022-10-07T12:12:44.421Z,58.37
2022-10-07T12:13:44.094Z,58.08
2022-10-07T12:14:44.069Z,57.03
2022-10-07T12:15:44.067Z,57.41
2022-10-07T12:16:44.106Z,58.17
2022-10-07T12:17:44.065Z,58.27
2022-10-07T12:18:44.091Z,58.46
2022-10-07T12:19:44.075Z,58.17
2022-10-07T12:20:44.071Z,58.27
2022-10-07T12:21:44.066Z,58.84
2022-10-07T12:22:44.345Z,59.42
2022-10-07T12:23:44.063Z,58.84
2022-10-07T12:24:44.063Z,59.04
2022-10-07T12:25:44.072Z,58.75
2022-10-07T12:26:44.114Z,58.84
2022-10-07T12:27:44.069Z,59.23
2022-10-07T12:28:44.117Z,59.90
2022-10-07T12:29:44.067Z,59.52
2022-10-07T12:30:44.057Z,59.52
2022-10-07T12:31:44.218Z,58.37
2022-10-07T12:32:44.470Z,58.27
2022-10-07T12:33:44.092Z,58.46
2022-10-07T12:34:44.071Z,58.75
2022-10-07T12:35:44.095Z,58.17
2022-10-07T12:36:44.146Z,59.13
2022-10-07T12:37:44.073Z,58.37
2022-10-07T12:38:44.052Z,57.98
2022-10-07T12:39:44.056Z,57.98
2022-10-07T12:40:44.077Z,58.37
2022-10-07T12:41:44.119Z,58.27
2022-10-07T12:42:44.364Z,58.27
2022-10-07T12:43:44.061Z,58.27
2022-10-07T12:44:44.081Z,58.27
2022-10-07T12:45:44.113Z,58.27
2022-10-07T12:46:44.060Z,58.46
2022-10-07T12:47:44.050Z,58.17
2022-10-07T12:48:44.086Z,58.27
2022-10-07T12:49:44.058Z,58.30
2022-10-07T12:50:44.053Z,58.27
2022-10-07T12:51:44.063Z,58.46
2022-10-07T12:52:44.455Z,57.41
2022-10-07T12:53:44.076Z,57.41